Time;durP1;ratioP1;P1;durP2;ratioP2;P2;SDS_P1;SDS_P2;PMS_P1;PMS_P2;Temp;Humidity;BMP_temperature;BMP_pressure;BME280_temperature;BME280_humidity;BME280_pressure;Samples;Min_cycle;Max_cycle;Signal;HPM_P1;HPM_P2
2023/09/16 00:01:12;;;;;;;0.82;0.30;;;12.60;99.90;;;;;;5056110;28;20424;-69
2023/09/16 00:03:38;;;;;;;0.22;0.10;;;12.60;99.90;;;;;;5094719;28;20048;-69
2023/09/16 00:06:06;;;;;;;1.33;0.22;;;12.60;99.90;;;;;;5056608;28;20033;-69
2023/09/16 00:08:33;;;;;;;0.90;0.30;;;12.50;99.90;;;;;;5055751;28;20100;-69
2023/09/16 00:11:02;;;;;;;0.10;0.10;;;12.50;99.90;;;;;;5088744;28;20436;-70
2023/09/16 00:13:27;;;;;;;0.82;0.20;;;12.50;99.90;;;;;;5057385;28;20070;-69
2023/09/16 00:15:54;;;;;;;0.28;0.28;;;12.40;99.90;;;;;;5058981;28;20036;-70
2023/09/16 00:18:20;;;;;;;0.88;0.28;;;12.40;99.90;;;;;;5054563;28;20399;-69
2023/09/16 00:20:49;;;;;;;0.15;0.10;;;12.40;99.90;;;;;;5054557;28;20115;-69
2023/09/16 00:23:16;;;;;;;0.45;0.20;;;12.40;99.90;;;;;;5053880;28;20182;-69
2023/09/16 00:25:42;;;;;;;0.43;0.20;;;12.40;99.90;;;;;;5041772;28;20566;-69
2023/09/16 00:28:08;;;;;;;0.70;0.30;;;12.40;99.90;;;;;;5054641;28;20048;-70
2023/09/16 00:30:35;;;;;;;0.38;0.20;;;12.40;99.90;;;;;;5084820;28;20037;-69
2023/09/16 00:33:04;;;;;;;0.52;0.30;;;12.40;99.90;;;;;;5058549;28;20044;-70
2023/09/16 00:35:30;;;;;;;0.10;0.10;;;12.40;99.90;;;;;;5055673;28;20045;-69
2023/09/16 00:37:56;;;;;;;0.20;0.10;;;12.40;99.90;;;;;;5068778;28;20045;-70
2023/09/16 00:40:22;;;;;;;0.13;0.10;;;12.40;99.90;;;;;;5088474;28;20041;-70
2023/09/16 00:42:48;;;;;;;1.02;0.50;;;12.40;99.90;;;;;;5060707;28;20041;-70
2023/09/16 00:45:14;;;;;;;0.43;0.13;;;12.40;99.90;;;;;;5058110;28;20040;-70
2023/09/16 00:47:41;;;;;;;0.17;0.10;;;12.40;99.90;;;;;;5055872;28;20376;-70
2023/09/16 00:50:17;;;;;;;0.20;0.20;;;12.40;99.90;;;;;;5059867;28;20119;-69
2023/09/16 00:53:03;;;;;;;0.57;0.28;;;12.40;99.90;;;;;;5089484;28;20110;-69
2023/09/16 00:55:29;;;;;;;0.00;0.00;;;12.40;99.90;;;;;;5038828;28;20297;-68
2023/09/16 00:57:56;;;;;;;0.68;0.40;;;12.30;99.90;;;;;;5063192;28;20677;-69
2023/09/16 01:00:26;;;;;;;0.68;0.25;;;12.30;99.90;;;;;;5095810;28;20531;-69
2023/09/16 01:02:53;;;;;;;0.68;0.35;;;12.30;99.90;;;;;;5063661;28;20110;-69
2023/09/16 01:05:19;;;;;;;0.82;0.47;;;12.30;99.90;;;;;;5044596;28;20167;-69
2023/09/16 01:07:50;;;;;;;0.38;0.15;;;12.30;99.90;;;;;;5064039;28;20518;-70
2023/09/16 01:10:23;;;;;;;0.45;0.20;;;12.30;99.90;;;;;;5094214;27;20036;-69
2023/09/16 01:12:54;;;;;;;0.17;0.10;;;12.30;99.90;;;;;;5060100;28;20045;-69
2023/09/16 01:15:22;;;;;;;0.40;0.20;;;12.20;99.90;;;;;;5060611;28;20041;-69
2023/09/16 01:18:09;;;;;;;0.32;0.32;;;12.30;99.90;;;;;;5056523;28;20174;-69
2023/09/16 01:20:38;;;;;;;0.43;0.20;;;12.30;99.90;;;;;;5058524;28;20037;-70
2023/09/16 01:23:05;;;;;;;0.38;0.20;;;12.20;99.90;;;;;;5062088;28;20108;-70
2023/09/16 01:25:30;;;;;;;0.60;0.20;;;12.30;99.90;;;;;;5092800;28;20492;-69
2023/09/16 01:27:56;;;;;;;0.57;0.28;;;12.30;99.90;;;;;;5058986;28;20112;-69
2023/09/16 01:30:26;;;;;;;0.17;0.15;;;12.30;99.90;;;;;;5095963;28;20496;-70
2023/09/16 01:33:16;;;;;;;0.47;0.20;;;12.30;99.90;;;;;;5062776;28;20033;-69
2023/09/16 01:35:45;;;;;;;0.77;0.32;;;12.20;99.90;;;;;;5045296;28;20051;-69
2023/09/16 01:38:14;;;;;;;0.77;0.40;;;12.30;99.90;;;;;;5041311;28;20401;-69
2023/09/16 01:40:43;;;;;;;0.73;0.20;;;12.20;99.90;;;;;;5061259;28;20119;-70
2023/09/16 01:43:09;;;;;;;0.35;0.20;;;12.20;99.90;;;;;;5056530;28;20045;-70
2023/09/16 01:45:42;;;;;;;0.47;0.10;;;12.20;99.90;;;;;;5092213;28;20120;-69
2023/09/16 01:48:09;;;;;;;0.20;0.20;;;12.20;99.90;;;;;;5055104;28;20485;-70
2023/09/16 01:50:35;;;;;;;0.60;0.20;;;12.20;99.90;;;;;;5058135;28;20489;-69
2023/09/16 01:53:01;;;;;;;0.82;0.32;;;12.20;99.90;;;;;;5057631;28;20675;-70
2023/09/16 01:55:27;;;;;;;0.30;0.22;;;12.20;99.90;;;;;;5056352;28;20109;-70
2023/09/16 01:57:53;;;;;;;0.65;0.20;;;12.20;99.90;;;;;;5061666;28;20118;-69
2023/09/16 02:00:19;;;;;;;0.28;0.20;;;12.10;99.90;;;;;;5041522;28;20057;-70
2023/09/16 02:02:44;;;;;;;1.35;0.30;;;12.10;99.90;;;;;;5091229;28;20033;-70
2023/09/16 02:05:10;;;;;;;0.40;0.20;;;12.10;99.90;;;;;;5056759;28;20037;-69
2023/09/16 02:07:36;;;;;;;0.28;0.20;;;12.10;99.90;;;;;;5059623;28;20516;-68
2023/09/16 02:10:03;;;;;;;0.80;0.40;;;12.10;99.90;;;;;;5058844;28;20123;-69
2023/09/16 02:12:29;;;;;;;0.10;0.10;;;12.10;99.90;;;;;;5060440;28;20041;-69
2023/09/16 02:14:54;;;;;;;0.10;0.03;;;12.10;99.90;;;;;;5060804;28;20519;-69
2023/09/16 02:17:20;;;;;;;0.45;0.20;;;12.00;99.90;;;;;;5092392;28;20084;-69
2023/09/16 02:19:46;;;;;;;0.77;0.30;;;12.00;99.90;;;;;;5072727;28;20066;-69
2023/09/16 02:22:12;;;;;;;0.60;0.30;;;12.00;99.90;;;;;;5061274;28;20377;-69
2023/09/16 02:24:37;;;;;;;0.30;0.25;;;12.00;99.90;;;;;;5053927;28;20472;-69
2023/09/16 02:27:04;;;;;;;0.10;0.10;;;12.00;99.90;;;;;;5061031;28;20037;-68
2023/09/16 02:29:33;;;;;;;1.10;0.38;;;11.90;99.90;;;;;;5061088;28;20331;-68
2023/09/16 02:31:58;;;;;;;1.17;0.40;;;11.90;99.90;;;;;;5063979;28;20063;-69
2023/09/16 02:34:24;;;;;;;0.22;0.20;;;11.80;99.90;;;;;;5054343;28;20037;-69
2023/09/16 02:36:50;;;;;;;0.45;0.20;;;11.90;99.90;;;;;;5059137;28;20041;-69
2023/09/16 02:39:15;;;;;;;0.35;0.20;;;11.80;99.90;;;;;;5061701;28;20094;-69
2023/09/16 02:41:41;;;;;;;0.90;0.43;;;11.90;99.90;;;;;;5060028;28;20123;-69
2023/09/16 02:44:07;;;;;;;0.75;0.10;;;11.80;99.90;;;;;;5063785;28;20137;-69
2023/09/16 02:46:33;;;;;;;0.98;0.30;;;11.80;99.90;;;;;;5054532;28;20040;-70
2023/09/16 02:49:02;;;;;;;0.88;0.43;;;11.80;99.90;;;;;;5059133;28;20048;-70
2023/09/16 02:51:30;;;;;;;0.75;0.32;;;11.80;99.90;;;;;;5042936;28;20144;-69
2023/09/16 02:53:56;;;;;;;0.82;0.40;;;11.80;99.90;;;;;;5057523;28;20119;-69
2023/09/16 02:56:21;;;;;;;0.82;0.43;;;11.80;99.90;;;;;;5055999;28;20115;-69
2023/09/16 02:58:47;;;;;;;0.57;0.32;;;11.80;99.90;;;;;;5059478;28;20045;-69
2023/09/16 03:01:13;;;;;;;1.77;0.47;;;11.80;99.90;;;;;;5063705;28;20322;-69
2023/09/16 03:03:40;;;;;;;0.28;0.20;;;11.80;99.90;;;;;;5059212;28;20044;-69
2023/09/16 03:06:05;;;;;;;1.40;0.28;;;11.70;99.90;;;;;;5055970;28;20036;-69
2023/09/16 03:08:31;;;;;;;1.52;0.40;;;11.70;99.90;;;;;;5059775;28;20045;-69
2023/09/16 03:11:04;;;;;;;0.52;0.30;;;11.80;99.90;;;;;;5057093;28;20111;-69
2023/09/16 03:13:30;;;;;;;1.60;0.80;;;11.70;99.90;;;;;;5058769;28;20051;-68
2023/09/16 03:16:17;;;;;;;0.95;0.32;;;11.70;99.90;;;;;;5061924;28;20032;-69
2023/09/16 03:18:47;;;;;;;0.50;0.38;;;11.70;99.90;;;;;;5055818;28;20500;-69
2023/09/16 03:21:14;;;;;;;1.13;0.50;;;11.70;99.90;;;;;;5077405;28;20048;-68
2023/09/16 03:23:41;;;;;;;0.55;0.30;;;11.70;99.90;;;;;;5047572;28;20048;-69
2023/09/16 03:26:11;;;;;;;0.30;0.30;;;11.70;99.90;;;;;;5060246;28;20048;-69
2023/09/16 03:28:42;;;;;;;1.75;0.50;;;11.70;99.90;;;;;;5060995;28;20045;-70
2023/09/16 03:31:09;;;;;;;0.75;0.25;;;11.70;99.90;;;;;;5055587;28;20584;-69
2023/09/16 03:33:36;;;;;;;1.48;0.50;;;11.70;99.90;;;;;;5090849;28;20152;-69
2023/09/16 03:36:02;;;;;;;0.82;0.40;;;11.70;99.90;;;;;;5092864;28;20044;-69
2023/09/16 03:38:29;;;;;;;0.30;0.20;;;11.70;99.90;;;;;;5090713;28;20056;-70
2023/09/16 03:40:56;;;;;;;0.57;0.30;;;11.60;99.90;;;;;;5092943;28;20127;-69
2023/09/16 03:43:21;;;;;;;1.10;0.40;;;11.60;99.90;;;;;;5055357;28;20123;-69
2023/09/16 03:45:47;;;;;;;3.00;0.60;;;11.60;99.90;;;;;;5059777;28;20044;-69
2023/09/16 03:48:13;;;;;;;0.47;0.28;;;11.60;99.90;;;;;;5057018;28;20083;-70
2023/09/16 03:50:38;;;;;;;0.25;0.20;;;11.60;99.90;;;;;;5059940;28;20090;-69
2023/09/16 03:53:04;;;;;;;1.27;0.35;;;11.60;99.90;;;;;;5062508;28;20115;-69
2023/09/16 03:55:30;;;;;;;0.60;0.50;;;11.60;99.90;;;;;;5094438;28;20082;-69
2023/09/16 03:57:56;;;;;;;0.43;0.17;;;11.60;99.90;;;;;;5090194;28;20079;-69
2023/09/16 04:00:22;;;;;;;0.30;0.13;;;11.60;99.90;;;;;;5062278;28;20455;-70
2023/09/16 04:02:48;;;;;;;0.52;0.32;;;11.50;99.90;;;;;;5060557;28;20105;-69
2023/09/16 04:05:14;;;;;;;0.60;0.50;;;11.50;99.90;;;;;;5055721;28;20398;-69
2023/09/16 04:07:40;;;;;;;0.47;0.22;;;11.50;99.90;;;;;;5064566;28;20518;-69
2023/09/16 04:10:09;;;;;;;1.13;0.25;;;11.50;99.90;;;;;;5061623;28;20037;-68
2023/09/16 04:12:35;;;;;;;1.02;0.60;;;11.50;99.90;;;;;;5066067;28;20032;-68
2023/09/16 04:15:01;;;;;;;1.60;0.45;;;11.40;99.90;;;;;;5060618;28;20052;-69
2023/09/16 04:17:27;;;;;;;0.80;0.30;;;11.40;99.90;;;;;;5046575;28;20056;-69
2023/09/16 04:19:53;;;;;;;1.42;0.45;;;11.40;99.90;;;;;;5057474;28;20515;-69
2023/09/16 04:22:19;;;;;;;0.65;0.25;;;11.40;99.90;;;;;;5049171;28;20040;-69
2023/09/16 04:24:46;;;;;;;0.65;0.38;;;11.40;99.90;;;;;;5059806;28;20044;-69
2023/09/16 04:27:11;;;;;;;0.85;0.38;;;11.40;99.90;;;;;;5062360;28;20119;-69
2023/09/16 04:29:37;;;;;;;0.52;0.40;;;11.40;99.90;;;;;;5059783;28;20468;-69
2023/09/16 04:32:03;;;;;;;0.38;0.30;;;11.40;99.90;;;;;;5059583;28;20033;-69
2023/09/16 04:34:29;;;;;;;0.40;0.20;;;11.40;99.90;;;;;;5059222;28;20040;-69
2023/09/16 04:36:55;;;;;;;0.65;0.28;;;11.40;99.90;;;;;;5058282;28;20068;-69
2023/09/16 04:39:24;;;;;;;0.80;0.32;;;11.40;99.90;;;;;;5060797;28;20044;-69
2023/09/16 04:41:56;;;;;;;0.10;0.10;;;11.40;99.90;;;;;;5060307;28;20040;-69
2023/09/16 04:44:23;;;;;;;0.60;0.40;;;11.40;99.90;;;;;;5093065;28;20056;-69
2023/09/16 04:46:53;;;;;;;0.47;0.20;;;11.30;99.90;;;;;;5062520;28;20557;-69
2023/09/16 04:49:20;;;;;;;0.65;0.22;;;11.30;99.90;;;;;;5061952;28;20122;-69
2023/09/16 04:51:45;;;;;;;0.20;0.20;;;11.30;99.90;;;;;;5095873;28;20113;-69
2023/09/16 04:54:11;;;;;;;0.75;0.40;;;11.30;99.90;;;;;;5063953;28;20483;-69
2023/09/16 04:56:37;;;;;;;0.65;0.30;;;11.30;99.90;;;;;;5056456;28;20497;-69
2023/09/16 04:59:04;;;;;;;0.80;0.40;;;11.30;99.90;;;;;;5066181;28;20057;-69
2023/09/16 05:01:30;;;;;;;1.40;0.50;;;11.20;99.90;;;;;;5092501;28;20045;-69
2023/09/16 05:03:56;;;;;;;0.60;0.40;;;11.20;99.90;;;;;;5064507;28;20477;-69
2023/09/16 05:06:22;;;;;;;0.52;0.22;;;11.20;99.90;;;;;;5060703;28;20037;-69
2023/09/16 05:08:48;;;;;;;1.42;0.30;;;11.20;99.90;;;;;;5094774;28;20144;-70
2023/09/16 05:11:14;;;;;;;0.45;0.30;;;11.20;99.90;;;;;;5060550;28;20075;-69
2023/09/16 05:13:40;;;;;;;0.80;0.30;;;11.10;99.90;;;;;;5064846;28;20068;-68
2023/09/16 05:16:07;;;;;;;0.82;0.35;;;11.20;99.90;;;;;;5064113;28;20040;-69
2023/09/16 05:18:34;;;;;;;0.47;0.15;;;11.20;99.90;;;;;;5057821;28;20048;-70
2023/09/16 05:20:59;;;;;;;0.45;0.15;;;11.20;99.90;;;;;;5059061;28;20076;-69
2023/09/16 05:23:25;;;;;;;0.60;0.30;;;11.20;99.90;;;;;;5061773;28;20094;-69
2023/09/16 05:25:51;;;;;;;1.17;0.45;;;11.10;99.90;;;;;;5061575;28;20685;-69
2023/09/16 05:28:17;;;;;;;1.40;0.30;;;11.10;99.90;;;;;;5039995;28;20035;-69
2023/09/16 05:30:44;;;;;;;0.22;0.20;;;11.10;99.90;;;;;;5060056;28;20036;-69
2023/09/16 05:33:13;;;;;;;0.17;0.13;;;11.10;99.90;;;;;;5057260;28;20036;-70
2023/09/16 05:35:40;;;;;;;0.38;0.20;;;11.10;99.90;;;;;;5042558;28;20416;-69
2023/09/16 05:38:06;;;;;;;0.63;0.20;;;11.20;99.90;;;;;;5054998;28;20127;-69
2023/09/16 05:40:32;;;;;;;0.90;0.47;;;11.20;99.90;;;;;;5059451;28;20044;-69
2023/09/16 05:42:58;;;;;;;0.73;0.17;;;11.20;99.90;;;;;;5060454;28;20052;-69
2023/09/16 05:45:24;;;;;;;0.65;0.38;;;11.20;99.90;;;;;;5093100;28;20377;-69
2023/09/16 05:47:50;;;;;;;0.73;0.30;;;11.30;99.90;;;;;;5041417;28;20487;-69
2023/09/16 05:50:16;;;;;;;0.40;0.32;;;11.30;99.90;;;;;;5057206;28;20040;-69
2023/09/16 05:52:42;;;;;;;0.75;0.30;;;11.40;99.90;;;;;;5057806;28;20044;-69
2023/09/16 05:55:08;;;;;;;1.52;0.50;;;11.40;99.90;;;;;;5062475;28;20044;-70
2023/09/16 05:57:34;;;;;;;0.52;0.30;;;11.50;99.90;;;;;;5091231;28;20061;-70
2023/09/16 06:00:00;;;;;;;0.38;0.28;;;11.60;99.90;;;;;;5057875;28;20456;-70
2023/09/16 06:02:25;;;;;;;0.82;0.20;;;11.60;99.90;;;;;;5056484;28;20056;-70
2023/09/16 06:04:51;;;;;;;0.98;0.22;;;11.60;99.90;;;;;;5061166;28;20045;-70
2023/09/16 06:07:17;;;;;;;1.88;0.40;;;11.70;99.90;;;;;;5055141;28;20033;-70
2023/09/16 06:09:43;;;;;;;0.40;0.28;;;11.80;99.90;;;;;;5089648;28;20040;-70
2023/09/16 06:12:09;;;;;;;0.93;0.35;;;11.90;99.90;;;;;;5056914;28;20338;-70
2023/09/16 06:14:36;;;;;;;0.80;0.30;;;11.90;99.90;;;;;;5055799;28;20140;-70
2023/09/16 06:17:01;;;;;;;0.43;0.20;;;12.10;99.90;;;;;;5060794;28;20674;-70
2023/09/16 06:19:28;;;;;;;0.85;0.30;;;12.10;99.90;;;;;;5054288;28;20123;-70
2023/09/16 06:21:55;;;;;;;1.35;0.35;;;12.30;99.90;;;;;;5060016;28;20455;-70
2023/09/16 06:24:21;;;;;;;0.40;0.30;;;12.40;99.90;;;;;;5047995;28;20045;-70
2023/09/16 06:26:47;;;;;;;0.80;0.50;;;12.50;99.90;;;;;;5059935;28;20048;-70
2023/09/16 06:29:13;;;;;;;0.82;0.55;;;12.70;99.90;;;;;;5053387;28;20036;-70
2023/09/16 06:31:39;;;;;;;2.42;0.47;;;12.80;99.90;;;;;;5058518;28;20378;-70
2023/09/16 06:34:07;;;;;;;1.02;0.52;;;13.00;99.90;;;;;;5052231;28;20098;-70
2023/09/16 06:36:33;;;;;;;1.10;0.43;;;13.10;99.90;;;;;;5041144;28;20531;-70
2023/09/16 06:39:00;;;;;;;0.90;0.57;;;13.30;99.90;;;;;;5056693;28;20041;-69
2023/09/16 06:41:26;;;;;;;1.23;1.02;;;13.40;99.90;;;;;;5061977;28;20047;-70
2023/09/16 06:43:52;;;;;;;0.82;0.50;;;13.60;99.90;;;;;;5060874;28;20492;-70
2023/09/16 06:46:18;;;;;;;2.00;0.68;;;13.70;99.90;;;;;;5055327;28;20041;-70
2023/09/16 06:48:45;;;;;;;1.55;0.70;;;13.90;99.90;;;;;;5086028;28;20045;-71
2023/09/16 06:51:11;;;;;;;1.08;0.57;;;14.00;99.90;;;;;;5058828;28;20040;-70
2023/09/16 06:53:37;;;;;;;0.95;0.45;;;14.10;99.90;;;;;;5051586;28;20036;-70
2023/09/16 06:56:03;;;;;;;1.83;0.80;;;14.20;99.90;;;;;;5054323;28;20049;-70
2023/09/16 06:58:28;;;;;;;2.35;0.95;;;14.30;99.90;;;;;;5064607;28;20201;-70
2023/09/16 07:00:54;;;;;;;1.55;0.95;;;14.40;99.90;;;;;;5079879;28;20115;-70
2023/09/16 07:03:21;;;;;;;1.75;0.68;;;14.50;99.90;;;;;;5054188;28;20058;-70
2023/09/16 07:05:50;;;;;;;1.70;0.95;;;14.70;99.90;;;;;;5054796;28;20045;-70
2023/09/16 07:08:17;;;;;;;1.33;0.70;;;14.80;99.90;;;;;;5055641;28;20045;-70
2023/09/16 07:10:43;;;;;;;1.33;0.88;;;14.90;99.90;;;;;;5053768;28;20563;-70
2023/09/16 07:13:08;;;;;;;1.60;0.70;;;15.10;99.90;;;;;;5056143;28;20123;-70
2023/09/16 07:15:35;;;;;;;1.35;0.47;;;15.20;99.90;;;;;;5055952;28;20124;-70
2023/09/16 07:18:01;;;;;;;2.03;0.93;;;15.40;99.90;;;;;;5058291;28;20057;-70
2023/09/16 07:20:27;;;;;;;1.40;0.63;;;15.60;99.90;;;;;;5053585;28;20048;-70
2023/09/16 07:22:55;;;;;;;1.20;0.70;;;15.80;99.90;;;;;;5084354;28;20032;-70
2023/09/16 07:25:21;;;;;;;1.98;0.75;;;16.10;99.90;;;;;;5055743;28;20055;-70
2023/09/16 07:27:47;;;;;;;1.33;0.70;;;16.40;99.90;;;;;;5062868;28;20446;-70
2023/09/16 07:30:14;;;;;;;0.90;0.73;;;16.60;99.90;;;;;;5063689;28;20047;-70
2023/09/16 07:32:42;;;;;;;1.25;0.60;;;16.80;99.90;;;;;;5059613;28;20067;-70
2023/09/16 07:35:08;;;;;;;1.98;0.75;;;16.90;99.90;;;;;;5058772;28;20186;-70
2023/09/16 07:37:34;;;;;;;2.45;0.82;;;17.10;99.90;;;;;;5036446;28;20424;-70
2023/09/16 07:40:00;;;;;;;1.02;0.47;;;17.30;99.90;;;;;;5059687;28;20033;-70
2023/09/16 07:42:25;;;;;;;0.73;0.50;;;17.70;99.90;;;;;;5054532;28;20071;-70
2023/09/16 07:44:51;;;;;;;1.15;0.60;;;18.00;99.90;;;;;;5059476;28;20064;-71
2023/09/16 07:47:17;;;;;;;1.10;0.50;;;18.20;99.90;;;;;;5042855;28;20097;-70
2023/09/16 07:49:42;;;;;;;1.45;0.70;;;18.50;99.90;;;;;;5039047;28;20041;-69
2023/09/16 07:52:08;;;;;;;0.65;0.38;;;18.80;99.90;;;;;;5054462;28;20048;-70
2023/09/16 07:54:34;;;;;;;0.98;0.47;;;19.10;99.90;;;;;;5056258;28;20550;-70
2023/09/16 07:57:00;;;;;;;0.77;0.52;;;19.20;99.90;;;;;;5052990;28;20056;-70
2023/09/16 07:59:28;;;;;;;1.17;0.65;;;19.50;99.90;;;;;;5063189;28;20048;-70
2023/09/16 08:01:54;;;;;;;1.73;0.63;;;19.80;99.90;;;;;;5055156;28;20067;-70
2023/09/16 08:04:20;;;;;;;1.92;0.82;;;20.00;99.90;;;;;;5090656;28;20110;-70
2023/09/16 08:06:49;;;;;;;0.68;0.43;;;20.30;99.90;;;;;;5056643;28;20052;-70
2023/09/16 08:09:16;;;;;;;0.95;0.30;;;20.40;99.90;;;;;;5056178;28;20122;-70
2023/09/16 08:11:41;;;;;;;0.80;0.45;;;20.40;99.90;;;;;;5058187;28;20064;-71
2023/09/16 08:14:07;;;;;;;0.47;0.30;;;20.30;99.90;;;;;;5057432;28;20063;-70
2023/09/16 08:16:33;;;;;;;1.42;0.47;;;20.40;99.90;;;;;;5056135;28;20098;-70
2023/09/16 08:18:59;;;;;;;0.80;0.22;;;20.70;99.90;;;;;;5058049;28;20064;-71
2023/09/16 08:21:25;;;;;;;1.30;0.57;;;21.30;99.90;;;;;;5073033;28;20032;-71
2023/09/16 08:23:50;;;;;;;0.88;0.40;;;21.60;99.90;;;;;;5058432;28;20113;-71
2023/09/16 08:26:16;;;;;;;1.27;0.45;;;21.90;99.90;;;;;;5055799;28;20049;-71
2023/09/16 08:28:42;;;;;;;1.25;0.43;;;22.30;99.90;;;;;;5088655;28;20443;-71
2023/09/16 08:31:07;;;;;;;1.08;0.50;;;22.30;99.90;;;;;;5058507;28;20105;-71
2023/09/16 08:33:33;;;;;;;1.38;0.52;;;22.40;99.90;;;;;;5056621;28;20439;-71
2023/09/16 08:35:59;;;;;;;0.50;0.30;;;22.30;99.90;;;;;;5065072;28;20036;-71
2023/09/16 08:38:24;;;;;;;1.13;0.55;;;22.30;99.90;;;;;;5051144;28;20045;-71
2023/09/16 08:41:00;;;;;;;1.27;0.75;;;22.90;99.90;;;;;;5055802;28;20412;-71
2023/09/16 08:43:37;;;;;;;1.42;0.30;;;23.80;99.90;;;;;;5055147;28;20068;-71
2023/09/16 08:46:07;;;;;;;1.85;0.52;;;24.70;99.90;;;;;;5057434;28;20135;-71
2023/09/16 08:48:37;;;;;;;0.95;0.57;;;25.50;99.90;;;;;;5052229;28;20041;-72
2023/09/16 08:51:05;;;;;;;0.73;0.45;;;26.00;99.90;;;;;;5040466;28;20098;-72
2023/09/16 08:53:35;;;;;;;0.88;0.55;;;26.40;99.90;;;;;;5042262;28;20106;-72
2023/09/16 08:56:02;;;;;;;0.77;0.40;;;26.90;99.90;;;;;;5058266;28;20067;-72
2023/09/16 08:58:32;;;;;;;0.75;0.32;;;27.30;99.90;;;;;;5062238;28;20102;-72
2023/09/16 09:00:58;;;;;;;1.75;0.43;;;27.70;99.90;;;;;;5098101;28;20379;-72
2023/09/16 09:03:24;;;;;;;0.40;0.40;;;27.70;99.90;;;;;;5095280;28;20199;-72
2023/09/16 09:05:52;;;;;;;1.95;0.30;;;27.90;96.70;;;;;;5039611;28;20058;-70
2023/09/16 09:08:18;;;;;;;0.73;0.40;;;28.20;98.40;;;;;;5041841;28;20037;-71
2023/09/16 09:10:45;;;;;;;0.63;0.25;;;28.20;92.80;;;;;;5044276;28;20048;-71
2023/09/16 09:13:13;;;;;;;0.60;0.25;;;28.00;92.80;;;;;;5067043;28;20040;-72
2023/09/16 09:15:40;;;;;;;0.90;0.50;;;28.20;96.20;;;;;;5063623;28;20115;-72
2023/09/16 09:18:07;;;;;;;0.52;0.30;;;28.50;95.20;;;;;;5060812;28;20045;-72
2023/09/16 09:20:34;;;;;;;0.45;0.28;;;28.70;93.70;;;;;;5059086;28;20041;-72
2023/09/16 09:22:59;;;;;;;0.52;0.35;;;28.70;94.10;;;;;;5087456;28;20400;-72
2023/09/16 09:25:31;;;;;;;0.95;0.20;;;28.80;92.00;;;;;;5061312;28;20040;-72
2023/09/16 09:27:57;;;;;;;1.42;0.28;;;29.00;92.70;;;;;;5045978;28;20040;-72
2023/09/16 09:30:27;;;;;;;0.80;0.30;;;29.20;83.80;;;;;;5061114;28;20496;-72
2023/09/16 09:32:57;;;;;;;0.90;0.20;;;29.30;89.50;;;;;;5099059;28;20045;-72
2023/09/16 09:35:28;;;;;;;0.75;0.32;;;29.20;85.70;;;;;;5060163;28;20090;-72
2023/09/16 09:37:54;;;;;;;0.73;0.22;;;29.20;86.60;;;;;;5061166;28;20480;-72
2023/09/16 09:40:21;;;;;;;0.30;0.20;;;29.40;80.90;;;;;;5060174;28;20042;-72
2023/09/16 09:42:52;;;;;;;1.05;0.30;;;29.40;81.90;;;;;;5060689;28;20041;-72
2023/09/16 09:45:20;;;;;;;0.60;0.30;;;29.50;82.50;;;;;;5093270;28;20040;-72
2023/09/16 09:47:48;;;;;;;0.65;0.25;;;29.60;81.90;;;;;;5058469;28;20173;-72
2023/09/16 09:50:16;;;;;;;0.70;0.32;;;29.80;77.40;;;;;;5084967;28;20067;-72
2023/09/16 09:52:47;;;;;;;0.75;0.30;;;29.80;80.60;;;;;;5094794;28;20043;-72
2023/09/16 09:55:17;;;;;;;1.95;0.40;;;29.80;84.70;;;;;;5090612;28;20119;-71
2023/09/16 09:57:45;;;;;;;0.28;0.20;;;29.70;85.40;;;;;;5062050;28;20497;-72
2023/09/16 10:00:17;;;;;;;1.30;0.35;;;29.30;76.50;;;;;;5061184;28;20520;-71
2023/09/16 10:02:43;;;;;;;1.17;0.40;;;29.10;79.70;;;;;;5059158;28;20071;-71
2023/09/16 10:05:33;;;;;;;0.65;0.20;;;29.10;81.30;;;;;;5089459;28;20501;-72
2023/09/16 10:07:58;;;;;;;0.75;0.25;;;29.50;79.30;;;;;;5063522;28;20480;-72
2023/09/16 10:10:25;;;;;;;0.85;0.20;;;30.00;78.40;;;;;;5061522;28;20170;-72
2023/09/16 10:12:53;;;;;;;0.82;0.32;;;30.20;84.00;;;;;;5062048;28;20128;-72
2023/09/16 10:15:31;;;;;;;1.00;0.38;;;30.50;76.20;;;;;;5061754;28;20653;-72
2023/09/16 10:17:57;;;;;;;0.85;0.22;;;30.40;72.10;;;;;;5095496;28;20036;-72
2023/09/16 10:20:24;;;;;;;0.65;0.35;;;30.20;70.40;;;;;;5062258;28;20044;-72
2023/09/16 10:22:50;;;;;;;0.30;0.10;;;29.80;78.10;;;;;;5059945;28;20121;-72
2023/09/16 10:25:19;;;;;;;0.43;0.10;;;29.70;75.80;;;;;;5063350;28;20044;-72
2023/09/16 10:27:48;;;;;;;0.30;0.20;;;29.80;75.80;;;;;;5060001;28;20097;-72
2023/09/16 10:30:15;;;;;;;0.40;0.20;;;30.00;76.60;;;;;;5059553;28;20036;-73
2023/09/16 10:32:41;;;;;;;0.40;0.20;;;30.00;74.00;;;;;;5064322;28;20045;-72
2023/09/16 10:35:07;;;;;;;1.15;0.30;;;30.00;73.90;;;;;;5058998;28;20123;-72
2023/09/16 10:37:35;;;;;;;0.47;0.20;;;30.20;78.00;;;;;;5061949;28;20045;-72
2023/09/16 10:40:04;;;;;;;0.32;0.10;;;30.20;76.60;;;;;;5076021;28;20123;-72
2023/09/16 10:42:33;;;;;;;0.70;0.15;;;30.40;70.10;;;;;;5056682;28;20094;-72
2023/09/16 10:45:01;;;;;;;0.47;0.20;;;29.90;70.60;;;;;;5060968;28;20087;-72
2023/09/16 10:47:28;;;;;;;0.32;0.20;;;29.70;74.00;;;;;;5055740;28;20055;-72
2023/09/16 10:49:54;;;;;;;0.30;0.10;;;29.60;73.40;;;;;;5090803;28;20049;-72
2023/09/16 10:52:30;;;;;;;0.63;0.30;;;29.50;73.50;;;;;;5052368;28;20353;-70
2023/09/16 10:55:07;;;;;;;0.80;0.20;;;29.40;70.70;;;;;;5056550;28;20041;-70
2023/09/16 10:57:39;;;;;;;0.55;0.20;;;29.00;72.90;;;;;;5058070;28;20119;-70
2023/09/16 11:00:10;;;;;;;0.88;0.22;;;29.00;71.00;;;;;;5053924;28;20588;-70
2023/09/16 11:02:59;;;;;;;0.57;0.20;;;29.20;69.80;;;;;;5056451;28;20523;-71
2023/09/16 11:05:25;;;;;;;0.08;0.08;;;29.10;68.00;;;;;;5054655;28;20036;-70
2023/09/16 11:07:55;;;;;;;0.40;0.13;;;29.20;70.90;;;;;;5054557;28;20102;-71
2023/09/16 11:10:22;;;;;;;0.40;0.17;;;29.10;69.60;;;;;;5052292;28;20047;-70
2023/09/16 11:12:48;;;;;;;0.32;0.20;;;29.20;73.10;;;;;;5053772;28;20043;-71
2023/09/16 11:15:15;;;;;;;0.22;0.13;;;29.30;71.70;;;;;;5056404;28;20037;-70
2023/09/16 11:17:41;;;;;;;9.45;5.85;;;29.40;66.50;;;;;;5037168;28;20512;-73
2023/09/16 11:20:34;;;;;;;1.00;0.60;;;29.50;66.70;;;;;;5052673;28;20119;-72
2023/09/16 11:23:05;;;;;;;0.88;0.20;;;29.40;65.30;;;;;;5054127;28;20055;-72
2023/09/16 11:25:33;;;;;;;1.10;0.22;;;29.50;65.40;;;;;;5052990;28;20048;-72
2023/09/16 11:28:06;;;;;;;0.20;0.10;;;29.60;64.10;;;;;;5086781;28;20127;-72
2023/09/16 11:30:33;;;;;;;0.00;0.00;;;29.50;63.00;;;;;;5087759;28;20047;-72
2023/09/16 11:32:58;;;;;;;0.13;0.08;;;29.60;65.20;;;;;;5056916;28;20152;-72
2023/09/16 11:35:27;;;;;;;0.00;0.00;;;29.40;59.20;;;;;;5051206;28;20053;-72
2023/09/16 11:37:54;;;;;;;0.88;0.20;;;29.70;64.20;;;;;;5061577;28;20040;-73
2023/09/16 11:40:31;;;;;;;0.40;0.10;;;30.30;59.80;;;;;;5092577;28;20040;-73
2023/09/16 11:42:57;;;;;;;0.40;0.10;;;30.50;53.70;;;;;;5090887;28;20044;-74
2023/09/16 11:45:24;;;;;;;0.50;0.10;;;30.50;55.70;;;;;;5058822;28;20072;-73
2023/09/16 11:47:50;;;;;;;0.63;0.20;;;30.50;57.70;;;;;;5053423;28;20527;-71
2023/09/16 11:50:26;;;;;;;0.10;0.00;;;30.70;58.10;;;;;;5056262;28;20037;-71
2023/09/16 11:52:53;;;;;;;0.47;0.20;;;31.20;58.30;;;;;;5040879;28;20037;-73
2023/09/16 11:55:19;;;;;;;0.47;0.10;;;31.40;57.40;;;;;;5088423;28;20063;-72
2023/09/16 11:57:46;;;;;;;0.52;0.10;;;31.30;54.80;;;;;;5083937;28;20053;-72
2023/09/16 12:00:12;;;;;;;0.00;0.00;;;31.10;56.70;;;;;;5057937;28;20052;-74
2023/09/16 12:02:40;;;;;;;0.20;0.10;;;30.70;55.30;;;;;;5043481;28;20201;-78
2023/09/16 12:05:06;;;;;;;0.03;0.03;;;30.30;56.90;;;;;;5052123;28;20041;-74
2023/09/16 12:07:34;;;;;;;0.17;0.00;;;29.60;57.40;;;;;;5060170;28;20052;-74
2023/09/16 12:10:01;;;;;;;0.22;0.10;;;28.80;58.30;;;;;;5091512;28;20041;-73
2023/09/16 12:12:30;;;;;;;0.15;0.10;;;28.40;58.60;;;;;;5068946;28;20067;-69
2023/09/16 12:14:56;;;;;;;0.32;0.17;;;28.40;59.40;;;;;;5058714;28;20032;-71
2023/09/16 12:17:25;;;;;;;0.15;0.10;;;28.60;60.80;;;;;;5055368;28;20041;-71
2023/09/16 12:19:55;;;;;;;0.10;0.03;;;28.30;58.20;;;;;;5039319;28;20492;-71
2023/09/16 12:22:21;;;;;;;0.52;0.17;;;28.00;59.70;;;;;;5042274;28;20041;-71
2023/09/16 12:24:51;;;;;;;0.10;0.00;;;27.80;60.10;;;;;;5056071;28;20338;-71
2023/09/16 12:27:17;;;;;;;0.30;0.10;;;27.80;62.50;;;;;;5057693;28;20116;-72
2023/09/16 12:29:43;;;;;;;0.10;0.03;;;27.60;59.00;;;;;;5062362;28;20029;-72
2023/09/16 12:32:10;;;;;;;1.45;0.10;;;27.20;58.40;;;;;;5062740;28;20202;-72
2023/09/16 12:34:36;;;;;;;0.20;0.10;;;27.50;61.20;;;;;;5072180;28;20047;-71
2023/09/16 12:37:02;;;;;;;0.28;0.15;;;28.20;58.30;;;;;;5055981;28;20520;-71
2023/09/16 12:39:33;;;;;;;0.10;0.00;;;28.70;55.20;;;;;;5061938;28;20041;-72
2023/09/16 12:42:01;;;;;;;0.08;0.00;;;28.70;56.80;;;;;;5056954;28;20083;-70
2023/09/16 12:44:27;;;;;;;0.20;0.10;;;29.10;56.30;;;;;;5057530;28;20056;-72
2023/09/16 12:46:54;;;;;;;0.70;0.10;;;29.60;56.70;;;;;;5060469;28;20055;-72
2023/09/16 12:49:20;;;;;;;3.58;1.85;;;30.10;56.80;;;;;;5056105;28;20099;-72